Terminal Aerodrome Forecast
Issued by NWS Spokane, WA

Home | Current Version | Previous Version | Text Only | Print | Product List | Glossary On
Versions: 1 2 3 4 5 6 7 8 9 10 11 12 13 14 15 16 17 18 19 20 21 22 23
000
FTUS46 KOTX 230045 AAA
TAFLWS
TAF AMD
KLWS 230045Z 2301/2324 17015KT P6SM VCSH SCT040 BKN080 OVC100
     FM230300 17012KT P6SM -RA SCT030 OVC050 WS020/24035KT
     FM231500 17012KT P6SM VCSH SCT050 OVC090
     FM232200 25012G18KT P6SM SCT060 BKN090=

USA.gov is the U.S. government's official web portal to all federal, state and local government web resources and services.